Road Town, British Virgin Islands

10:53 PM AST on August 17, 2019 (GMT -0400)
Kingstown | | Change Station

Elev 75 ft 18.42 °N, 64.58 °W | Updated 15 seconds ago

Partly Cloudy
Partly Cloudy
82.9 °F
Feels Like 92 °F
N
13.9
Wind Variable Wind from ENE
Gusts 18.3 mph

Today
High -- | Low -- °F
--% Chance of Precip.
Yesterday
High -- | Low -- °F
Precip. -- in
Pressure 30.05 in
Visibility 10.0 miles
Clouds Scattered Clouds 300 ft
Heat Index 92 °F
Dew Point 77 °F
Humidity 82%
Rainfall 0.00 in
Snow Depth Not available.
6:00 AM 6:44 PM
Waning Gibbous, 94% visible
SPECI TIST 180207Z AUTO 08006KT 10SM SCT003 28/24 A3005 RMK AO2 T02780244
Pressure 30.05 in
Visibility 10.0 miles
Clouds Scattered Clouds 300 ft
Heat Index 92 °F
Dew Point 77 °F
Humidity 82%
Rainfall 0.00 in
Snow Depth Not available.
6:00 AM 6:44 PM
Waning Gibbous, 94% visible
SPECI TIST 180207Z AUTO 08006KT 10SM SCT003 28/24 A3005 RMK AO2 T02780244

Get Severe Weather Alerts

Thanks for signing up!

Be on the lookout for a verification email in your inbox.

You'll start receiving the daily forecast at 6 AM.

×

10-Day Weather Forecast

No radar image for this location.
×

Almanac

Astronomy

Aug. 17, 2019 Rise Set
Actual Time
Civil Twilight
Nautical Twilight
Astronomical Twilight
Moon
Length of Visible Light
Length of Day
Tomorrow will be .
, % of the Moon is Illuminated

Today's Extremes

Country Highs Country Lows

Community

WunderPhotos

Category 6

Welcome to Category 6. This is the collective home for Weather Underground's featured writeups by Dr. Jeff Masters (right), Bob Henson (left), Chris Burt, and other regular contributors.

Nearby

Air Quality

  Air Quality AQ Index Pollutant
Not available.

Snow Depth

Station Depth Elevation

Earthquake Activity

City Distance Mag. Time & Date
Minimum magnitude displayed is 2.5.

Coastal Water Temperatures

Place Temperature

Stations

Nearby Weather Stations

Station Location Temp. Windchill Dew Point Humidity Wind Precip. Elev Updated Type